createdAt,value
2022-11-25T00:02:25.996Z,23.60
2022-11-25T00:05:29.606Z,23.80
2022-11-25T00:08:32.491Z,28.40
2022-11-25T00:11:37.579Z,27.40
2022-11-25T00:14:40.442Z,20.40
2022-11-25T00:17:43.284Z,20.80
2022-11-25T00:20:46.273Z,23.10
2022-11-25T00:23:57.744Z,19.90
2022-11-25T00:27:04.938Z,18.70
2022-11-25T00:30:08.219Z,18.90
2022-11-25T00:33:11.205Z,24.50
2022-11-25T00:36:24.608Z,20.60
2022-11-25T00:39:27.529Z,20.30
2022-11-25T00:42:49.524Z,25.70
2022-11-25T00:45:52.889Z,23.10
2022-11-25T00:48:55.796Z,25.50
2022-11-25T00:51:58.973Z,25.30
2022-11-25T00:55:01.777Z,26.60
2022-11-25T00:58:04.657Z,25.10
2022-11-25T01:01:08.363Z,36.50
2022-11-25T01:04:12.369Z,36.20
2022-11-25T01:07:17.278Z,34.90
2022-11-25T01:10:20.133Z,48.70
2022-11-25T01:13:23.004Z,52.60
2022-11-25T01:16:26.234Z,54.00
2022-11-25T01:19:29.147Z,51.10
2022-11-25T01:22:31.956Z,51.20
2022-11-25T01:25:39.936Z,41.30
2022-11-25T01:28:42.871Z,46.00
2022-11-25T01:31:46.696Z,51.90
2022-11-25T01:34:49.592Z,47.50
2022-11-25T01:37:52.559Z,40.20
2022-11-25T01:40:55.739Z,43.40
2022-11-25T01:44:09.768Z,42.50
2022-11-25T01:47:30.967Z,49.30
2022-11-25T01:50:35.448Z,45.30
2022-11-25T01:53:38.326Z,46.60
2022-11-25T01:56:50.076Z,43.70
2022-11-25T01:59:57.272Z,53.40
2022-11-25T02:03:02.055Z,30.40
2022-11-25T02:06:16.389Z,29.70
2022-11-25T02:09:21.626Z,20.30
2022-11-25T02:12:24.585Z,25.10
2022-11-25T02:15:29.753Z,22.50
2022-11-25T02:18:32.725Z,18.80
2022-11-25T02:21:47.011Z,13.70
2022-11-25T02:24:55.364Z,15.30
2022-11-25T02:28:03.799Z,15.70
2022-11-25T02:31:07.964Z,11.30
2022-11-25T02:34:11.087Z,10.40
2022-11-25T02:37:16.665Z,11.00
2022-11-25T02:40:19.951Z,11.00
2022-11-25T02:43:26.330Z,11.00
2022-11-25T02:46:30.312Z,14.60
2022-11-25T02:49:33.224Z,15.10
2022-11-25T02:52:36.192Z,18.70
2022-11-25T02:55:39.239Z,13.10
2022-11-25T02:58:43.125Z,9.10
2022-11-25T03:01:48.452Z,9.00
2022-11-25T03:04:54.257Z,9.10
2022-11-25T03:07:57.152Z,9.90
2022-11-25T03:11:00.049Z,8.40
2022-11-25T03:14:02.982Z,9.10
2022-11-25T03:17:05.818Z,12.30
2022-11-25T03:20:09.252Z,16.20
2022-11-25T03:23:13.229Z,17.10
2022-11-25T03:26:16.052Z,17.00
2022-11-25T03:29:19.283Z,21.20
2022-11-25T03:32:22.258Z,20.20
2022-11-25T03:35:25.287Z,19.40
2022-11-25T03:38:28.317Z,20.20
2022-11-25T03:41:31.169Z,19.10
2022-11-25T03:44:35.996Z,16.80
2022-11-25T03:47:39.682Z,15.80
2022-11-25T03:50:42.986Z,8.50
2022-11-25T03:53:45.802Z,10.10
2022-11-25T03:56:48.606Z,8.50
2022-11-25T03:59:52.123Z,7.40
2022-11-25T04:02:55.136Z,8.00
2022-11-25T04:05:58.748Z,6.70
2022-11-25T04:09:01.592Z,8.10
2022-11-25T04:12:23.322Z,11.70
2022-11-25T04:15:26.225Z,10.60
2022-11-25T04:18:29.538Z,12.10
2022-11-25T04:21:32.325Z,13.20
2022-11-25T04:24:36.002Z,19.20
2022-11-25T04:27:38.979Z,16.20
2022-11-25T04:30:41.934Z,17.40
2022-11-25T04:33:49.673Z,17.20
2022-11-25T04:36:55.194Z,18.70
2022-11-25T04:39:58.051Z,16.50
2022-11-25T04:43:06.004Z,25.40
2022-11-25T04:46:19.578Z,26.80
2022-11-25T04:49:22.417Z,26.40
2022-11-25T04:52:25.411Z,25.00
2022-11-25T04:55:28.324Z,27.20
2022-11-25T04:58:50.052Z,31.40
2022-11-25T05:01:52.881Z,29.80
2022-11-25T05:04:58.138Z,21.90
2022-11-25T05:08:01.315Z,22.10
2022-11-25T05:11:04.211Z,23.00
2022-11-25T05:14:07.077Z,24.10
2022-11-25T05:17:16.295Z,22.40
2022-11-25T05:20:19.124Z,17.40
2022-11-25T05:23:21.998Z,18.30
2022-11-25T05:26:24.829Z,13.80
2022-11-25T05:29:27.668Z,14.80
2022-11-25T05:32:30.506Z,15.20
2022-11-25T05:35:33.294Z,15.50
2022-11-25T05:38:36.115Z,13.60
2022-11-25T05:41:39.067Z,14.40
2022-11-25T05:44:41.895Z,13.60
2022-11-25T05:47:45.773Z,13.60
2022-11-25T05:50:49.573Z,11.70
2022-11-25T05:53:52.405Z,10.10
2022-11-25T05:56:55.330Z,12.90
2022-11-25T05:59:58.103Z,13.80
2022-11-25T06:03:01.022Z,14.00
2022-11-25T06:06:04.890Z,10.30
2022-11-25T06:09:08.874Z,13.90
2022-11-25T06:12:12.636Z,12.50
2022-11-25T06:15:15.614Z,11.80
2022-11-25T06:18:19.034Z,10.20
2022-11-25T06:21:21.903Z,13.90
2022-11-25T06:24:24.918Z,13.20
2022-11-25T06:27:44.008Z,9.20
2022-11-25T06:30:51.213Z,11.00
2022-11-25T06:33:54.788Z,8.80
2022-11-25T06:36:58.841Z,9.70
2022-11-25T06:40:04.028Z,11.40
2022-11-25T06:43:06.960Z,9.90
2022-11-25T06:46:21.119Z,9.30
2022-11-25T06:49:26.326Z,11.80
2022-11-25T06:52:31.857Z,10.80
2022-11-25T06:55:34.794Z,11.90
2022-11-25T06:58:37.875Z,10.40
2022-11-25T07:01:40.787Z,9.10
2022-11-25T07:04:44.789Z,11.90
2022-11-25T07:07:47.845Z,8.80
2022-11-25T07:10:51.183Z,10.60
2022-11-25T07:13:56.721Z,11.00
2022-11-25T07:16:59.548Z,8.30
2022-11-25T07:20:02.505Z,10.90
2022-11-25T07:23:05.378Z,13.60
2022-11-25T07:26:14.154Z,10.10
2022-11-25T07:32:39.777Z,10.40
2022-11-25T07:35:42.758Z,11.60
2022-11-25T07:38:46.863Z,10.50
2022-11-25T07:41:51.927Z,11.20
2022-11-25T07:44:54.861Z,10.30
2022-11-25T07:47:57.713Z,16.00
2022-11-25T07:51:00.521Z,13.60
2022-11-25T07:54:07.633Z,18.40
2022-11-25T07:57:10.500Z,13.10
2022-11-25T08:00:14.570Z,15.10
2022-11-25T08:03:17.526Z,14.10
2022-11-25T08:06:26.891Z,9.90
2022-11-25T08:09:29.714Z,10.40
2022-11-25T08:12:33.512Z,8.50
2022-11-25T08:15:36.528Z,12.70
2022-11-25T08:18:40.641Z,10.10
2022-11-25T08:21:43.990Z,10.60
2022-11-25T08:24:46.860Z,11.20
2022-11-25T08:27:49.774Z,8.30
2022-11-25T08:30:52.614Z,8.90
2022-11-25T08:33:56.292Z,8.80
2022-11-25T08:36:59.055Z,11.50
2022-11-25T08:40:02.280Z,10.90
2022-11-25T08:43:05.358Z,14.50
2022-11-25T08:46:14.607Z,14.60
2022-11-25T08:49:19.524Z,8.50
2022-11-25T08:52:23.110Z,11.40
2022-11-25T08:55:27.528Z,14.90
2022-11-25T08:58:30.341Z,13.20
2022-11-25T09:01:33.207Z,17.00
2022-11-25T09:04:36.709Z,13.30
2022-11-25T09:07:39.663Z,11.00
2022-11-25T09:10:43.469Z,10.70
2022-11-25T09:13:47.485Z,14.80
2022-11-25T09:16:50.457Z,16.20
2022-11-25T09:19:54.540Z,19.20
2022-11-25T09:23:02.956Z,17.70
2022-11-25T09:26:06.870Z,20.20
2022-11-25T09:29:12.231Z,20.60
2022-11-25T09:32:15.168Z,22.30
2022-11-25T09:35:20.394Z,18.60
2022-11-25T09:38:23.195Z,18.00
2022-11-25T09:41:51.161Z,25.00
2022-11-25T09:45:22.085Z,18.50
2022-11-25T09:48:44.381Z,17.30
2022-11-25T09:52:18.453Z,18.30
2022-11-25T09:55:25.026Z,18.40
2022-11-25T09:58:34.072Z,18.10
2022-11-25T10:01:50.838Z,19.20
2022-11-25T10:05:35.706Z,14.90
2022-11-25T10:08:42.130Z,17.90
2022-11-25T10:11:54.845Z,15.70
2022-11-25T10:15:04.088Z,17.50
2022-11-25T10:18:25.399Z,15.80
2022-11-25T10:21:28.645Z,14.60
2022-11-25T10:24:31.516Z,13.00
2022-11-25T10:27:53.020Z,11.00
2022-11-25T10:31:12.804Z,10.90
2022-11-25T10:34:32.216Z,16.50
2022-11-25T10:40:48.678Z,13.70
2022-11-25T10:43:51.610Z,10.10
2022-11-25T10:47:15.372Z,11.30
2022-11-25T10:50:43.086Z,12.30
2022-11-25T10:54:39.211Z,9.80
2022-11-25T10:57:43.340Z,9.10
2022-11-25T11:00:46.638Z,10.20
2022-11-25T11:04:02.738Z,11.10
2022-11-25T11:07:09.513Z,8.30
2022-11-25T11:10:14.677Z,9.40
2022-11-25T11:13:25.881Z,7.70
2022-11-25T11:16:31.238Z,9.90
2022-11-25T11:19:34.145Z,11.50
2022-11-25T11:22:47.137Z,11.10
2022-11-25T11:26:02.473Z,8.60
2022-11-25T11:29:14.574Z,8.10
2022-11-25T11:32:29.316Z,10.10
2022-11-25T11:35:59.463Z,7.30
2022-11-25T11:39:21.421Z,8.30
2022-11-25T11:42:53.455Z,5.50
2022-11-25T11:46:18.572Z,5.40
2022-11-25T11:49:30.747Z,5.50
2022-11-25T11:52:39.942Z,10.50
2022-11-25T11:56:18.831Z,6.00
2022-11-25T11:59:46.971Z,6.30
2022-11-25T12:02:54.161Z,6.90
2022-11-25T12:06:01.096Z,8.30
2022-11-25T12:09:10.585Z,5.60
2022-11-25T12:12:19.315Z,6.70
2022-11-25T12:15:54.929Z,6.70
2022-11-25T12:19:21.702Z,11.80
2022-11-25T12:22:46.713Z,8.40
2022-11-25T12:25:53.264Z,9.00
2022-11-25T12:29:01.647Z,9.60
2022-11-25T12:32:21.863Z,9.80
2022-11-25T12:35:38.647Z,12.30
2022-11-25T12:39:08.482Z,10.00
2022-11-25T12:42:24.154Z,10.00
2022-11-25T12:45:27.201Z,8.90
2022-11-25T12:48:30.159Z,8.10
2022-11-25T12:51:42.323Z,7.40
2022-11-25T12:55:15.211Z,12.80
2022-11-25T12:58:28.464Z,11.00
2022-11-25T13:01:31.419Z,9.10
2022-11-25T13:05:13.080Z,7.80
2022-11-25T13:08:43.324Z,11.80
2022-11-25T13:11:49.647Z,13.10
2022-11-25T13:15:08.443Z,8.20
2022-11-25T13:18:16.225Z,10.80
2022-11-25T13:21:19.929Z,10.60
2022-11-25T13:24:42.569Z,12.80
2022-11-25T13:27:45.274Z,14.90
2022-11-25T13:30:51.859Z,17.30
2022-11-25T13:34:01.615Z,15.30
2022-11-25T13:37:38.277Z,16.50
2022-11-25T13:40:41.661Z,20.80
2022-11-25T13:43:53.687Z,19.80
2022-11-25T13:47:01.868Z,18.10
2022-11-25T13:50:12.248Z,22.90
2022-11-25T13:53:25.104Z,23.00
2022-11-25T13:56:32.049Z,22.80
2022-11-25T13:59:49.552Z,20.20
2022-11-25T14:02:52.870Z,17.90
2022-11-25T14:06:14.318Z,21.60
2022-11-25T14:09:42.062Z,24.10
2022-11-25T14:12:56.936Z,21.70
2022-11-25T14:16:37.890Z,17.70
2022-11-25T14:20:05.812Z,19.30
2022-11-25T14:23:42.034Z,22.70
2022-11-25T14:26:50.472Z,18.60
2022-11-25T14:33:10.308Z,26.80
2022-11-25T14:36:21.798Z,29.20
2022-11-25T14:39:41.627Z,31.60
2022-11-25T14:42:48.562Z,34.30
2022-11-25T14:46:15.808Z,35.10
2022-11-25T14:49:44.945Z,32.20
2022-11-25T14:52:45.298Z,25.40
2022-11-25T14:55:49.598Z,28.80
2022-11-25T14:58:55.369Z,27.30
2022-11-25T15:01:58.451Z,32.00
2022-11-25T15:05:10.440Z,28.60
2022-11-25T15:08:18.369Z,30.50
2022-11-25T15:11:28.437Z,29.70
2022-11-25T15:14:35.986Z,26.70
2022-11-25T15:17:38.940Z,38.00
2022-11-25T15:20:52.908Z,32.00
2022-11-25T15:24:03.416Z,25.50
2022-11-25T15:27:15.865Z,30.20
2022-11-25T15:30:29.438Z,23.70
2022-11-25T15:33:32.414Z,22.70
2022-11-25T15:36:35.379Z,25.10
2022-11-25T15:39:39.615Z,26.20
2022-11-25T15:42:43.932Z,24.70
2022-11-25T15:45:51.538Z,27.30
2022-11-25T15:49:01.574Z,30.40
2022-11-25T15:52:14.860Z,30.10
2022-11-25T15:55:31.734Z,27.00
2022-11-25T15:58:34.830Z,22.80
2022-11-25T16:01:37.852Z,22.50
2022-11-25T16:04:40.982Z,32.70
2022-11-25T16:08:19.371Z,41.40
2022-11-25T16:11:45.730Z,45.30
2022-11-25T16:15:00.569Z,44.10
2022-11-25T16:18:24.868Z,42.30
2022-11-25T16:21:33.238Z,35.10
2022-11-25T16:28:06.639Z,35.70
2022-11-25T16:31:15.976Z,41.40
2022-11-25T16:34:21.516Z,42.00
2022-11-25T16:37:24.658Z,38.10
2022-11-25T16:40:30.713Z,34.60
2022-11-25T16:43:35.993Z,33.40
2022-11-25T16:46:38.903Z,36.10
2022-11-25T16:49:44.055Z,34.00
2022-11-25T16:52:51.395Z,35.80
2022-11-25T16:55:58.876Z,37.20
2022-11-25T16:59:14.993Z,30.20
2022-11-25T17:02:24.938Z,33.00
2022-11-25T17:05:33.322Z,32.80
2022-11-25T17:09:22.494Z,28.60
2022-11-25T17:12:45.208Z,28.40
2022-11-25T17:15:52.799Z,27.30
2022-11-25T17:19:01.920Z,23.10
2022-11-25T17:22:20.096Z,22.20
2022-11-25T17:25:32.311Z,21.70
2022-11-25T17:28:39.738Z,23.10
2022-11-25T17:31:43.511Z,20.90
2022-11-25T17:34:46.652Z,16.20
2022-11-25T17:37:55.169Z,17.70
2022-11-25T17:41:12.343Z,19.30
2022-11-25T17:44:36.233Z,21.00
2022-11-25T17:47:56.007Z,16.00
2022-11-25T17:51:02.200Z,20.10
2022-11-25T17:54:11.659Z,19.40
2022-11-25T17:57:20.024Z,19.60
2022-11-25T18:00:28.021Z,18.40
2022-11-25T18:03:42.778Z,19.10
2022-11-25T18:07:04.537Z,19.20
2022-11-25T18:10:08.314Z,16.40
2022-11-25T18:13:16.002Z,18.30
2022-11-25T18:16:29.594Z,18.20
2022-11-25T18:19:35.754Z,18.80
2022-11-25T18:22:47.903Z,17.30
2022-11-25T18:25:56.587Z,13.10
2022-11-25T18:29:02.931Z,16.20
2022-11-25T18:32:06.230Z,21.00
2022-11-25T18:35:36.360Z,15.40
2022-11-25T18:38:42.847Z,16.80
2022-11-25T18:41:53.570Z,18.50
2022-11-25T18:45:12.298Z,18.00
2022-11-25T18:48:26.058Z,15.40
2022-11-25T18:51:39.847Z,18.90
2022-11-25T18:54:52.642Z,14.90
2022-11-25T18:58:00.115Z,17.60
2022-11-25T19:01:28.424Z,11.70
2022-11-25T19:04:34.943Z,12.70
2022-11-25T19:07:42.515Z,12.70
2022-11-25T19:10:47.008Z,13.50
2022-11-25T19:13:53.563Z,12.20
2022-11-25T19:17:02.176Z,10.00
2022-11-25T19:20:20.959Z,13.40
2022-11-25T19:23:26.426Z,12.30
2022-11-25T19:26:41.464Z,13.50
2022-11-25T19:29:54.326Z,11.70
2022-11-25T19:33:05.073Z,10.40
2022-11-25T19:36:17.460Z,13.80
2022-11-25T19:39:30.725Z,14.40
2022-11-25T19:42:37.333Z,12.40
2022-11-25T19:49:15.672Z,15.00
2022-11-25T19:55:29.874Z,13.00
2022-11-25T19:58:42.607Z,14.50
2022-11-25T20:04:54.317Z,13.00
2022-11-25T20:07:58.250Z,13.80
2022-11-25T20:11:03.959Z,13.70
2022-11-25T20:14:07.951Z,14.00
2022-11-25T20:17:17.362Z,13.00
2022-11-25T20:20:27.714Z,12.00
2022-11-25T20:23:44.321Z,15.80
2022-11-25T20:26:50.287Z,12.90
2022-11-25T20:29:53.463Z,12.20
2022-11-25T20:32:57.946Z,13.10
2022-11-25T20:36:07.664Z,10.20
2022-11-25T20:39:22.511Z,12.60
2022-11-25T20:42:30.811Z,12.50
2022-11-25T20:45:40.593Z,12.60
2022-11-25T20:48:47.089Z,11.80
2022-11-25T20:52:06.487Z,9.80
2022-11-25T20:55:24.149Z,11.90
2022-11-25T20:58:36.526Z,9.50
2022-11-25T21:01:41.418Z,8.60
2022-11-25T21:04:44.720Z,9.50
2022-11-25T21:07:53.456Z,9.20
2022-11-25T21:10:59.402Z,11.50
2022-11-25T21:14:04.531Z,10.00
2022-11-25T21:17:14.609Z,9.60
2022-11-25T21:20:19.683Z,9.60
2022-11-25T21:23:26.459Z,7.80
2022-11-25T21:26:32.128Z,8.00
2022-11-25T21:29:35.393Z,8.20
2022-11-25T21:32:38.327Z,9.30
2022-11-25T21:35:44.493Z,10.70
2022-11-25T21:38:51.783Z,12.20
2022-11-25T21:41:58.154Z,9.00
2022-11-25T21:45:03.710Z,9.10
2022-11-25T21:48:21.187Z,7.80
2022-11-25T21:51:24.553Z,9.00
2022-11-25T21:54:27.410Z,7.80
2022-11-25T21:57:30.311Z,13.40
2022-11-25T22:00:34.898Z,7.70
2022-11-25T22:03:37.773Z,7.60
2022-11-25T22:06:40.713Z,8.20
2022-11-25T22:09:43.583Z,8.70
2022-11-25T22:12:47.498Z,8.00
2022-11-25T22:15:56.115Z,8.40
2022-11-25T22:22:02.404Z,9.80
2022-11-25T22:25:05.605Z,9.40
2022-11-25T22:28:10.368Z,8.20
2022-11-25T22:31:15.399Z,9.90
2022-11-25T22:34:20.043Z,8.90
2022-11-25T22:37:24.794Z,12.40
2022-11-25T22:40:28.232Z,11.40
2022-11-25T22:43:35.519Z,10.60
2022-11-25T22:46:38.640Z,11.20
2022-11-25T22:49:47.616Z,10.20
2022-11-25T22:52:51.384Z,8.30
2022-11-25T22:55:58.651Z,11.30
2022-11-25T22:59:01.607Z,9.80
2022-11-25T23:02:04.692Z,12.80
2022-11-25T23:05:16.431Z,10.80
2022-11-25T23:08:25.355Z,13.70
2022-11-25T23:11:28.407Z,16.10
2022-11-25T23:14:31.462Z,12.00
2022-11-25T23:17:34.404Z,12.90
2022-11-25T23:20:39.834Z,11.00
2022-11-25T23:23:42.679Z,17.60
2022-11-25T23:26:45.739Z,15.50
2022-11-25T23:29:48.707Z,9.60
2022-11-25T23:32:53.879Z,9.00
2022-11-25T23:35:58.606Z,12.40
2022-11-25T23:39:03.772Z,10.30
2022-11-25T23:42:16.674Z,10.80
2022-11-25T23:45:22.911Z,9.10
2022-11-25T23:48:30.819Z,9.30
2022-11-25T23:51:33.754Z,13.90
2022-11-25T23:54:41.555Z,8.60
2022-11-25T23:57:47.513Z,9.40
